createdAt,value
2023-08-01T00:01:49.593Z,16.87
2023-08-01T00:04:17.585Z,16.88
2023-08-01T00:06:44.482Z,16.88
2023-08-01T00:09:11.125Z,16.88
2023-08-01T00:11:37.725Z,16.91
2023-08-01T00:14:04.642Z,16.84
2023-08-01T00:16:32.224Z,16.90
2023-08-01T00:18:58.987Z,16.91
2023-08-01T00:21:26.060Z,16.86
2023-08-01T00:23:53.120Z,16.78
2023-08-01T00:26:19.805Z,16.79
2023-08-01T00:28:46.814Z,16.78
2023-08-01T00:31:13.482Z,16.75
2023-08-01T00:33:40.112Z,16.77
2023-08-01T00:36:12.407Z,16.76
2023-08-01T00:38:39.136Z,16.70
2023-08-01T00:41:06.056Z,16.69
2023-08-01T00:43:33.122Z,16.67
2023-08-01T00:46:04.929Z,16.70
2023-08-01T00:48:32.663Z,16.70
2023-08-01T00:51:01.987Z,16.66
2023-08-01T00:53:29.510Z,16.65
2023-08-01T00:55:56.557Z,16.63
2023-08-01T00:58:23.606Z,16.60
2023-08-01T01:00:50.342Z,16.64
2023-08-01T01:03:18.192Z,16.62
2023-08-01T01:06:09.301Z,16.63
2023-08-01T01:08:35.897Z,16.58
2023-08-01T01:11:02.576Z,16.60
2023-08-01T01:13:29.292Z,16.59
2023-08-01T01:15:55.927Z,16.59
2023-08-01T01:18:22.672Z,16.57
2023-08-01T01:20:49.565Z,16.55
2023-08-01T01:23:17.281Z,16.50
2023-08-01T01:25:44.213Z,16.47
2023-08-01T01:28:12.015Z,16.50
2023-08-01T01:30:39.470Z,16.49
2023-08-01T01:33:06.725Z,16.48
2023-08-01T01:35:36.581Z,16.44
2023-08-01T01:38:06.780Z,16.41
2023-08-01T01:40:34.445Z,16.38
2023-08-01T01:43:02.253Z,16.39
2023-08-01T01:45:28.953Z,16.38
2023-08-01T01:47:55.617Z,16.37
2023-08-01T01:50:22.445Z,16.36
2023-08-01T01:52:49.086Z,16.32
2023-08-01T01:55:16.152Z,16.34
2023-08-01T01:57:42.926Z,16.29
2023-08-01T02:00:13.150Z,16.30
2023-08-01T02:02:40.017Z,16.29
2023-08-01T02:05:07.107Z,16.31
2023-08-01T02:07:34.965Z,16.25
2023-08-01T02:10:02.323Z,16.29
2023-08-01T02:12:32.868Z,16.28
2023-08-01T02:14:59.843Z,16.25
2023-08-01T02:17:27.146Z,16.22
2023-08-01T02:19:54.222Z,16.21
2023-08-01T02:22:21.241Z,16.21
2023-08-01T02:24:47.949Z,16.23
2023-08-01T02:27:15.099Z,16.19
2023-08-01T02:29:41.844Z,16.17
2023-08-01T02:32:08.708Z,16.17
2023-08-01T02:34:35.498Z,16.09
2023-08-01T02:37:02.168Z,16.09
2023-08-01T02:39:28.913Z,16.08
2023-08-01T02:41:55.658Z,16.02
2023-08-01T02:44:25.866Z,15.99
2023-08-01T02:46:52.563Z,15.98
2023-08-01T02:49:19.454Z,15.91
2023-08-01T02:51:46.180Z,15.88
2023-08-01T02:54:12.710Z,15.86
2023-08-01T02:56:42.928Z,15.86
2023-08-01T02:59:10.180Z,15.84
2023-08-01T03:01:40.519Z,15.81
2023-08-01T03:04:07.976Z,15.79
2023-08-01T03:06:34.970Z,15.79
2023-08-01T03:09:02.191Z,15.76
2023-08-01T03:11:29.076Z,15.78
2023-08-01T03:13:55.954Z,15.77
2023-08-01T03:16:22.709Z,15.77
2023-08-01T03:18:49.642Z,15.77
2023-08-01T03:21:16.428Z,15.76
2023-08-01T03:23:43.222Z,15.76
2023-08-01T03:26:10.132Z,15.74
2023-08-01T03:28:36.791Z,15.73
2023-08-01T03:31:03.576Z,15.69
2023-08-01T03:33:30.922Z,15.66
2023-08-01T03:35:57.589Z,15.66
2023-08-01T03:38:24.194Z,15.65
2023-08-01T03:40:51.088Z,15.65
2023-08-01T03:43:17.842Z,15.68
2023-08-01T03:45:44.572Z,15.73
2023-08-01T03:48:11.442Z,15.75
2023-08-01T03:50:38.080Z,15.76
2023-08-01T03:53:04.718Z,15.78
2023-08-01T03:55:31.498Z,15.81
2023-08-01T03:57:58.102Z,15.83
2023-08-01T04:00:24.867Z,15.79
2023-08-01T04:02:51.685Z,15.88
2023-08-01T04:05:19.146Z,15.87
2023-08-01T04:07:45.871Z,15.90
2023-08-01T04:10:12.659Z,15.92
2023-08-01T04:12:39.288Z,15.92
2023-08-01T04:15:06.638Z,15.99
2023-08-01T04:17:33.365Z,16.05
2023-08-01T04:20:00.185Z,16.08
2023-08-01T04:22:26.931Z,16.15
2023-08-01T04:24:53.768Z,16.18
2023-08-01T04:27:20.365Z,16.24
2023-08-01T04:29:47.428Z,16.25
2023-08-01T04:32:15.149Z,16.29
2023-08-01T04:34:42.698Z,16.34
2023-08-01T04:37:09.584Z,16.38
2023-08-01T04:39:36.378Z,16.42
2023-08-01T04:42:03.318Z,16.47
2023-08-01T04:44:30.820Z,16.48
2023-08-01T04:46:57.811Z,16.50
2023-08-01T04:49:27.743Z,16.55
2023-08-01T04:51:55.196Z,16.56
2023-08-01T04:54:22.129Z,16.61
2023-08-01T04:56:48.841Z,16.61
2023-08-01T04:59:15.594Z,16.61
2023-08-01T05:01:42.407Z,16.63
2023-08-01T05:04:09.099Z,16.62
2023-08-01T05:06:36.074Z,16.64
2023-08-01T05:09:03.501Z,16.66
2023-08-01T05:11:30.169Z,16.74
2023-08-01T05:13:56.895Z,16.77
2023-08-01T05:16:23.884Z,16.78
2023-08-01T05:18:50.530Z,16.84
2023-08-01T05:21:17.248Z,16.90
2023-08-01T05:23:44.141Z,16.97
2023-08-01T05:26:10.831Z,17.05
2023-08-01T05:28:37.726Z,17.08
2023-08-01T05:31:04.966Z,17.13
2023-08-01T05:33:31.608Z,17.23
2023-08-01T05:35:58.489Z,17.29
2023-08-01T05:38:25.176Z,17.40
2023-08-01T05:40:51.806Z,17.48
2023-08-01T05:43:18.393Z,17.60
2023-08-01T05:45:45.099Z,17.71
2023-08-01T05:48:11.839Z,17.81
2023-08-01T05:50:39.400Z,17.91
2023-08-01T05:53:06.770Z,17.99
2023-08-01T05:55:33.588Z,18.07
2023-08-01T05:58:00.709Z,18.15
2023-08-01T06:00:27.955Z,18.24
2023-08-01T06:02:55.232Z,18.31
2023-08-01T06:05:21.934Z,18.39
2023-08-01T06:07:48.694Z,18.42
2023-08-01T06:10:15.396Z,18.49
2023-08-01T06:12:42.007Z,18.54
2023-08-01T06:15:09.177Z,18.62
2023-08-01T06:17:35.792Z,18.72
2023-08-01T06:20:05.645Z,18.79
2023-08-01T06:22:32.669Z,18.85
2023-08-01T06:24:59.350Z,18.94
2023-08-01T06:27:26.396Z,19.03
2023-08-01T06:29:53.053Z,19.13
2023-08-01T06:32:19.750Z,19.27
2023-08-01T06:34:46.581Z,19.41
2023-08-01T06:37:13.142Z,19.54
2023-08-01T06:39:39.722Z,19.72
2023-08-01T06:42:06.928Z,19.89
2023-08-01T06:44:33.539Z,20.08
2023-08-01T06:47:00.200Z,20.22
2023-08-01T06:49:27.721Z,20.37
2023-08-01T06:51:54.310Z,20.54
2023-08-01T06:54:20.908Z,20.64
2023-08-01T06:56:50.318Z,20.81
2023-08-01T06:59:17.401Z,20.98
2023-08-01T07:01:45.124Z,21.17
2023-08-01T07:04:12.483Z,21.39
2023-08-01T07:06:40.790Z,21.58
2023-08-01T07:09:08.050Z,21.74
2023-08-01T07:11:34.708Z,21.94
2023-08-01T07:14:01.493Z,22.12
2023-08-01T07:16:28.219Z,22.29
2023-08-01T07:18:56.651Z,22.40
2023-08-01T07:21:24.032Z,22.51
2023-08-01T07:23:50.596Z,22.65
2023-08-01T07:26:17.458Z,22.73
2023-08-01T07:28:44.877Z,22.88
2023-08-01T07:31:11.614Z,23.06
2023-08-01T07:33:39.035Z,23.26
2023-08-01T07:36:06.220Z,23.46
2023-08-01T07:38:33.074Z,23.59
2023-08-01T07:41:05.284Z,23.74
2023-08-01T07:43:32.195Z,23.84
2023-08-01T07:45:59.684Z,23.94
2023-08-01T07:48:26.681Z,24.04
2023-08-01T07:50:53.420Z,24.16
2023-08-01T07:53:20.138Z,24.39
2023-08-01T07:55:46.996Z,24.56
2023-08-01T07:58:13.627Z,24.74
2023-08-01T08:00:40.410Z,24.92
2023-08-01T08:03:09.338Z,25.11
2023-08-01T08:05:39.753Z,25.20
2023-08-01T08:08:06.703Z,25.25
2023-08-01T08:10:33.480Z,25.28
2023-08-01T08:13:00.552Z,25.21
2023-08-01T08:15:27.519Z,25.13
2023-08-01T08:17:54.389Z,25.17
2023-08-01T08:20:21.283Z,25.29
2023-08-01T08:22:47.877Z,25.43
2023-08-01T08:25:14.611Z,25.62
2023-08-01T08:27:41.629Z,25.82
2023-08-01T08:30:09.108Z,25.88
2023-08-01T08:32:36.783Z,25.97
2023-08-01T08:35:03.872Z,26.17
2023-08-01T08:37:30.573Z,26.36
2023-08-01T08:39:57.408Z,26.52
2023-08-01T08:42:24.111Z,26.63
2023-08-01T08:44:55.956Z,26.77
2023-08-01T08:47:27.087Z,26.93
2023-08-01T08:49:57.286Z,27.08
2023-08-01T08:52:25.478Z,27.18
2023-08-01T08:54:53.472Z,27.20
2023-08-01T08:57:21.492Z,27.23
2023-08-01T08:59:49.113Z,27.39
2023-08-01T09:02:16.570Z,27.45
2023-08-01T09:04:43.337Z,27.37
2023-08-01T09:07:12.553Z,27.40
2023-08-01T09:09:39.149Z,27.37
2023-08-01T09:12:06.853Z,27.33
2023-08-01T09:14:34.155Z,27.37
2023-08-01T09:17:08.991Z,27.36
2023-08-01T09:19:36.150Z,27.36
2023-08-01T09:22:10.549Z,27.51
2023-08-01T09:24:37.387Z,27.65
2023-08-01T09:27:05.989Z,27.84
2023-08-01T09:29:35.644Z,28.05
2023-08-01T09:32:12.984Z,28.30
2023-08-01T09:34:39.567Z,28.41
2023-08-01T09:37:06.656Z,28.38
2023-08-01T09:39:33.294Z,28.20
2023-08-01T09:42:01.941Z,28.24
2023-08-01T09:44:29.939Z,28.37
2023-08-01T09:47:04.812Z,28.52
2023-08-01T09:49:32.389Z,28.67
2023-08-01T09:52:00.005Z,28.81
2023-08-01T09:54:27.877Z,28.90
2023-08-01T09:56:57.219Z,28.90
2023-08-01T09:59:26.266Z,28.98
2023-08-01T10:01:54.971Z,29.02
2023-08-01T10:04:28.238Z,29.12
2023-08-01T10:07:07.950Z,29.15
2023-08-01T10:09:36.581Z,29.01
2023-08-01T10:12:05.027Z,28.90
2023-08-01T10:14:33.648Z,29.01
2023-08-01T10:17:00.589Z,29.11
2023-08-01T10:19:32.514Z,29.22
2023-08-01T10:21:59.832Z,29.28
2023-08-01T10:24:27.833Z,29.44
2023-08-01T10:26:54.610Z,29.58
2023-08-01T10:29:21.240Z,29.75
2023-08-01T10:31:55.858Z,29.88
2023-08-01T10:34:26.293Z,29.95
2023-08-01T10:37:00.459Z,30.07
2023-08-01T10:39:29.139Z,30.12
2023-08-01T10:42:00.288Z,30.25
2023-08-01T10:44:27.905Z,30.31
2023-08-01T10:48:10.851Z,30.44
2023-08-01T10:52:28.634Z,30.53
2023-08-01T10:55:03.046Z,30.55
2023-08-01T10:57:31.686Z,30.65
2023-08-01T10:59:59.381Z,30.73
2023-08-01T11:02:28.428Z,30.82
2023-08-01T11:06:28.084Z,30.81
2023-08-01T11:08:54.829Z,30.72
2023-08-01T11:11:21.618Z,30.83
2023-08-01T11:13:57.700Z,30.75
2023-08-01T11:16:24.888Z,30.58
2023-08-01T11:18:51.792Z,30.35
2023-08-01T11:21:31.122Z,30.42
2023-08-01T11:23:58.467Z,30.24
2023-08-01T11:26:25.104Z,30.37
2023-08-01T11:28:52.318Z,30.45
2023-08-01T11:31:19.263Z,30.60
2023-08-01T11:33:57.236Z,30.59
2023-08-01T11:36:27.456Z,30.65
2023-08-01T11:38:55.316Z,30.70
2023-08-01T11:41:22.321Z,30.76
2023-08-01T11:43:49.210Z,30.81
2023-08-01T11:46:15.900Z,30.65
2023-08-01T11:48:48.047Z,30.65
2023-08-01T11:51:14.928Z,30.67
2023-08-01T11:53:41.667Z,30.72
2023-08-01T11:56:09.159Z,30.74
2023-08-01T11:58:37.990Z,30.40
2023-08-01T12:01:10.422Z,30.69
2023-08-01T12:04:04.213Z,30.72
2023-08-01T12:06:33.844Z,30.77
2023-08-01T12:09:10.296Z,30.69
2023-08-01T12:11:37.667Z,30.53
2023-08-01T12:14:11.661Z,30.65
2023-08-01T12:16:43.685Z,30.72
2023-08-01T12:19:10.691Z,30.72
2023-08-01T12:21:37.830Z,30.75
2023-08-01T12:24:04.818Z,30.79
2023-08-01T12:26:32.335Z,30.83
2023-08-01T12:28:58.970Z,30.76
2023-08-01T12:31:26.278Z,30.90
2023-08-01T12:33:54.736Z,30.88
2023-08-01T12:36:21.836Z,30.71
2023-08-01T12:38:48.617Z,30.90
2023-08-01T12:41:15.518Z,30.98
2023-08-01T12:43:42.780Z,31.00
2023-08-01T12:46:09.398Z,30.98
2023-08-01T12:48:36.083Z,30.91
2023-08-01T12:51:03.913Z,31.01
2023-08-01T12:53:30.979Z,30.97
2023-08-01T12:55:57.709Z,30.92
2023-08-01T12:58:24.340Z,31.14
2023-08-01T13:00:51.231Z,31.17
2023-08-01T13:03:18.204Z,31.22
2023-08-01T13:05:44.902Z,31.02
2023-08-01T13:08:11.714Z,31.16
2023-08-01T13:10:39.811Z,31.28
2023-08-01T13:13:07.085Z,31.25
2023-08-01T13:15:33.726Z,31.13
2023-08-01T13:18:00.597Z,31.01
2023-08-01T13:20:29.764Z,30.94
2023-08-01T13:22:57.362Z,30.91
2023-08-01T13:25:24.191Z,30.87
2023-08-01T13:27:50.905Z,30.85
2023-08-01T13:30:19.269Z,30.72
2023-08-01T13:32:46.897Z,30.60
2023-08-01T13:35:17.356Z,30.46
2023-08-01T13:37:44.162Z,30.32
2023-08-01T13:40:12.964Z,30.21
2023-08-01T13:42:39.857Z,30.03
2023-08-01T13:45:07.051Z,30.02
2023-08-01T13:47:34.211Z,29.92
2023-08-01T13:50:01.242Z,29.89
2023-08-01T13:52:27.930Z,29.90
2023-08-01T13:54:54.729Z,29.84
2023-08-01T13:57:21.503Z,29.82
2023-08-01T13:59:55.552Z,29.81
2023-08-01T14:02:33.477Z,29.85
2023-08-01T14:05:00.429Z,29.82
2023-08-01T14:07:27.073Z,29.84
2023-08-01T14:09:54.109Z,29.83
2023-08-01T14:12:21.422Z,29.88
2023-08-01T14:14:48.039Z,29.81
2023-08-01T14:17:14.837Z,29.86
2023-08-01T14:19:41.679Z,29.80
2023-08-01T14:22:08.378Z,29.72
2023-08-01T14:24:35.032Z,29.81
2023-08-01T14:27:01.917Z,29.80
2023-08-01T14:29:28.493Z,29.81
2023-08-01T14:31:55.197Z,29.62
2023-08-01T14:34:22.090Z,29.70
2023-08-01T14:36:48.827Z,29.42
2023-08-01T14:39:22.684Z,29.60
2023-08-01T14:44:20.795Z,29.65
2023-08-01T14:46:47.750Z,29.67
2023-08-01T14:49:17.460Z,29.68
2023-08-01T14:51:44.253Z,29.55
2023-08-01T14:54:12.475Z,29.47
2023-08-01T14:56:41.122Z,29.52
2023-08-01T14:59:08.090Z,29.53
2023-08-01T15:01:35.014Z,29.54
2023-08-01T15:04:01.729Z,29.50
2023-08-01T15:06:28.705Z,29.31
2023-08-01T15:08:55.765Z,29.37
2023-08-01T15:11:22.583Z,29.21
2023-08-01T15:13:49.464Z,29.35
2023-08-01T15:16:18.472Z,29.33
2023-08-01T15:18:48.050Z,29.06
2023-08-01T15:21:15.017Z,29.15
2023-08-01T15:23:41.777Z,29.05
2023-08-01T15:26:08.894Z,29.05
2023-08-01T15:28:40.243Z,28.97
2023-08-01T15:31:09.060Z,28.95
2023-08-01T15:33:37.401Z,28.93
2023-08-01T15:36:06.237Z,28.83
2023-08-01T15:38:34.102Z,28.70
2023-08-01T15:41:08.060Z,28.82
2023-08-01T15:43:40.076Z,28.77
2023-08-01T15:46:07.516Z,28.50
2023-08-01T15:48:35.041Z,28.71
2023-08-01T15:51:03.451Z,28.60
2023-08-01T15:53:30.408Z,28.32
2023-08-01T15:56:23.270Z,28.49
2023-08-01T15:58:50.810Z,28.42
2023-08-01T16:01:17.772Z,28.40
2023-08-01T16:03:45.570Z,28.38
2023-08-01T16:06:15.426Z,28.20
2023-08-01T16:08:42.351Z,28.12
2023-08-01T16:11:09.347Z,27.79
2023-08-01T16:13:36.125Z,27.96
2023-08-01T16:16:02.903Z,27.94
2023-08-01T16:18:29.731Z,27.87
2023-08-01T16:20:56.343Z,27.78
2023-08-01T16:23:23.062Z,27.85
2023-08-01T16:25:49.678Z,27.80
2023-08-01T16:28:16.306Z,27.80
2023-08-01T16:30:43.066Z,27.68
2023-08-01T16:33:11.226Z,27.56
2023-08-01T16:35:38.041Z,27.67
2023-08-01T16:38:04.831Z,27.48
2023-08-01T16:40:32.635Z,27.43
2023-08-01T16:42:59.889Z,27.30
2023-08-01T16:45:26.804Z,27.12
2023-08-01T16:47:53.645Z,27.05
2023-08-01T16:50:21.558Z,27.01
2023-08-01T16:52:49.228Z,26.85
2023-08-01T16:55:17.477Z,26.71
2023-08-01T16:57:44.995Z,26.54
2023-08-01T17:00:12.622Z,26.41
2023-08-01T17:02:39.592Z,26.27
2023-08-01T17:05:08.310Z,26.16
2023-08-01T17:07:35.196Z,26.12
2023-08-01T17:10:03.762Z,26.03
2023-08-01T17:12:30.548Z,25.92
2023-08-01T17:14:57.683Z,25.75
2023-08-01T17:17:24.677Z,25.65
2023-08-01T17:19:51.614Z,25.57
2023-08-01T17:22:18.809Z,25.43
2023-08-01T17:24:46.000Z,25.39
2023-08-01T17:27:15.996Z,25.26
2023-08-01T17:29:42.851Z,25.10
2023-08-01T17:32:09.697Z,25.06
2023-08-01T17:34:36.742Z,24.92
2023-08-01T17:37:05.742Z,24.89
2023-08-01T17:39:34.746Z,24.68
2023-08-01T17:42:01.877Z,24.48
2023-08-01T17:44:29.721Z,24.41
2023-08-01T17:46:59.360Z,24.57
2023-08-01T17:49:26.366Z,24.35
2023-08-01T17:51:53.237Z,24.16
2023-08-01T17:54:21.109Z,24.10
2023-08-01T17:56:48.025Z,23.91
2023-08-01T17:59:17.261Z,23.93
2023-08-01T18:01:44.291Z,23.80
2023-08-01T18:04:11.132Z,23.86
2023-08-01T18:06:38.677Z,23.61
2023-08-01T18:09:07.291Z,23.56
2023-08-01T18:11:34.326Z,23.49
2023-08-01T18:14:04.858Z,23.46
2023-08-01T18:16:31.862Z,23.39
2023-08-01T18:18:58.599Z,23.25
2023-08-01T18:21:25.294Z,23.03
2023-08-01T18:23:52.172Z,23.06
2023-08-01T18:26:23.970Z,23.02
2023-08-01T18:28:55.043Z,22.87
2023-08-01T18:31:23.275Z,22.85
2023-08-01T18:33:50.223Z,22.75
2023-08-01T18:36:21.729Z,22.59
2023-08-01T18:38:49.721Z,22.68
2023-08-01T18:41:16.767Z,22.62
2023-08-01T18:43:44.029Z,22.37
2023-08-01T18:46:10.981Z,22.44
2023-08-01T18:48:38.410Z,22.20
2023-08-01T18:51:12.768Z,22.38
2023-08-01T18:53:40.037Z,22.34
2023-08-01T18:56:13.365Z,22.29
2023-08-01T18:58:42.332Z,22.20
2023-08-01T19:01:17.227Z,22.21
2023-08-01T19:03:45.499Z,22.13
2023-08-01T19:06:14.618Z,21.94
2023-08-01T19:08:41.470Z,21.99
2023-08-01T19:11:08.374Z,22.00
2023-08-01T19:13:35.252Z,21.81
2023-08-01T19:16:02.193Z,21.64
2023-08-01T19:23:04.076Z,21.80
2023-08-01T19:51:12.114Z,21.21
2023-08-01T19:53:39.173Z,21.15
2023-08-01T19:56:05.777Z,21.12
2023-08-01T19:58:32.451Z,21.04
2023-08-01T20:00:59.168Z,20.98
2023-08-01T20:03:25.986Z,20.95
2023-08-01T20:05:57.667Z,20.89
2023-08-01T20:08:25.028Z,20.87
2023-08-01T20:11:02.278Z,20.83
2023-08-01T20:13:31.998Z,20.82
2023-08-01T20:15:58.760Z,20.80
2023-08-01T20:18:25.607Z,20.75
2023-08-01T20:20:53.682Z,20.74
2023-08-01T20:23:20.303Z,20.71
2023-08-01T20:25:48.867Z,20.62
2023-08-01T20:28:18.298Z,20.60
2023-08-01T20:30:45.936Z,20.55
2023-08-01T20:33:12.726Z,20.56
2023-08-01T20:35:39.478Z,20.55
2023-08-01T20:38:06.174Z,20.56
2023-08-01T20:40:34.545Z,20.54
2023-08-01T20:43:01.991Z,20.50
2023-08-01T20:45:28.729Z,20.47
2023-08-01T20:47:58.485Z,20.44
2023-08-01T20:50:27.605Z,20.41
2023-08-01T20:52:54.622Z,20.36
2023-08-01T20:55:21.239Z,20.38
2023-08-01T20:57:49.893Z,20.34
2023-08-01T21:00:16.753Z,20.26
2023-08-01T21:02:43.647Z,20.25
2023-08-01T21:05:10.526Z,20.25
2023-08-01T21:07:37.141Z,20.23
2023-08-01T21:10:03.925Z,20.24
2023-08-01T21:12:30.927Z,20.23
2023-08-01T21:14:58.493Z,20.20
2023-08-01T21:17:25.345Z,20.20
2023-08-01T21:19:52.915Z,20.17
2023-08-01T21:22:19.599Z,20.11
2023-08-01T21:24:46.377Z,20.10
2023-08-01T21:27:13.229Z,20.08
2023-08-01T21:29:39.962Z,20.05
2023-08-01T21:32:06.998Z,20.07
2023-08-01T21:34:33.737Z,20.01
2023-08-01T21:37:00.352Z,20.01
2023-08-01T21:39:28.063Z,20.02
2023-08-01T21:41:54.803Z,19.99
2023-08-01T21:44:21.557Z,19.97
2023-08-01T21:46:48.288Z,19.95
2023-08-01T21:49:15.184Z,19.96
2023-08-01T21:51:41.785Z,19.94
2023-08-01T21:54:09.503Z,19.91
2023-08-01T21:56:36.348Z,19.84
2023-08-01T21:59:02.917Z,19.82
2023-08-01T22:01:29.661Z,19.82
2023-08-01T22:03:56.656Z,19.75
2023-08-01T22:06:23.350Z,19.76
2023-08-01T22:08:50.083Z,19.69
2023-08-01T22:11:18.380Z,19.71
2023-08-01T22:13:45.095Z,19.74
2023-08-01T22:16:12.190Z,19.72
2023-08-01T22:18:38.868Z,19.71
2023-08-01T22:21:05.553Z,19.67
2023-08-01T22:23:32.373Z,19.69
2023-08-01T22:25:59.118Z,19.68
2023-08-01T22:28:30.765Z,19.61
2023-08-01T22:30:57.958Z,19.53
2023-08-01T22:33:24.803Z,19.53
2023-08-01T22:35:51.505Z,19.55
2023-08-01T22:38:18.296Z,19.54
2023-08-01T22:40:45.090Z,19.56
2023-08-01T22:43:14.210Z,19.48
2023-08-01T22:45:41.576Z,19.52
2023-08-01T22:48:08.933Z,19.53
2023-08-01T22:50:35.851Z,19.54
2023-08-01T22:53:04.956Z,19.55
2023-08-01T22:55:32.361Z,19.54
2023-08-01T22:57:58.993Z,19.54
2023-08-01T23:00:25.776Z,19.47
2023-08-01T23:02:52.590Z,19.51
2023-08-01T23:05:19.648Z,19.47
2023-08-01T23:07:46.643Z,19.45
2023-08-01T23:10:13.397Z,19.47
2023-08-01T23:12:40.003Z,19.42
2023-08-01T23:15:07.982Z,19.39
2023-08-01T23:17:35.920Z,19.35
2023-08-01T23:20:03.478Z,19.35
2023-08-01T23:22:30.221Z,19.31
2023-08-01T23:24:57.037Z,19.33
2023-08-01T23:27:23.855Z,19.32
2023-08-01T23:29:56.957Z,19.27
2023-08-01T23:32:23.684Z,19.21
2023-08-01T23:34:50.351Z,19.19
2023-08-01T23:37:17.321Z,19.18
2023-08-01T23:39:43.989Z,19.12
2023-08-01T23:42:10.577Z,19.11
2023-08-01T23:44:37.770Z,19.06
2023-08-01T23:47:04.631Z,19.04
2023-08-01T23:49:33.853Z,19.02
2023-08-01T23:52:01.077Z,19.01
2023-08-01T23:54:27.954Z,18.99
2023-08-01T23:56:54.826Z,18.94
2023-08-01T23:59:21.606Z,18.92
